Terminal Aerodrome Forecast
Issued by NWS

Current Version | Previous Version | Graphics & Text | Print | Product List | Glossary On
Versions: 1 2 3 4 5 6 7 8 9 10 11 12 13 14 15 16 17 18 19 20 21
000
FTUS41 KILN 191133
TAFLUK
TAF
KLUK 191133Z 1912/2012 19010KT P6SM VCSH OVC015
     FM191500 20012G21KT P6SM VCSH OVC012
     FM192000 21014G23KT P6SM VCSH SCT025 BKN070
     FM200000 19013KT P6SM FEW035 SCT250=

USA.gov is the U.S. government's official web portal to all federal, state and local government web resources and services.